createdAt,value
2023-01-26T00:02:03.972Z,21.51
2023-01-26T00:07:06.703Z,21.55
2023-01-26T00:12:10.843Z,21.58
2023-01-26T00:17:13.552Z,21.60
2023-01-26T00:22:16.285Z,21.60
2023-01-26T00:27:20.385Z,21.63
2023-01-26T00:32:23.140Z,21.67
2023-01-26T00:37:25.898Z,21.66
2023-01-26T00:42:30.158Z,21.71
2023-01-26T00:47:33.051Z,21.73
2023-01-26T00:52:35.812Z,21.76
2023-01-26T00:57:40.309Z,21.79
2023-01-26T01:02:43.117Z,21.79
2023-01-26T01:07:46.762Z,21.84
2023-01-26T01:12:50.903Z,21.80
2023-01-26T01:17:53.901Z,21.83
2023-01-26T01:22:56.687Z,21.61
2023-01-26T01:28:00.751Z,21.77
2023-01-26T01:33:03.534Z,21.78
2023-01-26T01:38:06.324Z,21.74
2023-01-26T01:43:12.827Z,21.73
2023-01-26T01:48:26.308Z,21.76
2023-01-26T01:53:32.520Z,21.76
2023-01-26T01:58:40.611Z,21.73
2023-01-26T02:03:48.046Z,21.70
2023-01-26T02:08:53.106Z,21.60
2023-01-26T02:13:59.391Z,21.48
2023-01-26T02:19:02.264Z,21.45
2023-01-26T02:24:12.161Z,21.36
2023-01-26T02:29:16.414Z,21.30
2023-01-26T02:34:20.199Z,21.22
2023-01-26T02:39:35.662Z,21.09
2023-01-26T02:44:42.578Z,21.00
2023-01-26T02:49:50.376Z,20.92
2023-01-26T02:55:13.091Z,20.82
2023-01-26T03:00:22.305Z,20.75
2023-01-26T03:05:26.564Z,20.72
2023-01-26T03:10:30.252Z,20.64
2023-01-26T03:15:43.743Z,20.58
2023-01-26T03:21:05.710Z,20.48
2023-01-26T03:26:28.697Z,20.40
2023-01-26T03:31:32.930Z,20.34
2023-01-26T03:36:37.338Z,20.22
2023-01-26T03:42:02.123Z,19.97
2023-01-26T03:47:24.482Z,19.93
2023-01-26T03:52:45.161Z,19.86
2023-01-26T03:57:48.936Z,19.86
2023-01-26T04:03:10.967Z,19.83
2023-01-26T04:08:23.756Z,19.78
2023-01-26T04:13:54.902Z,19.76
2023-01-26T04:19:22.529Z,19.76
2023-01-26T04:24:25.628Z,19.72
2023-01-26T04:29:33.136Z,19.68
2023-01-26T04:34:37.591Z,19.62
2023-01-26T04:39:47.817Z,19.66
2023-01-26T04:44:51.369Z,19.61
2023-01-26T04:49:55.668Z,19.61
2023-01-26T04:55:00.065Z,19.57
2023-01-26T05:00:05.855Z,19.56
2023-01-26T05:05:10.874Z,19.52
2023-01-26T05:10:15.747Z,19.49
2023-01-26T05:15:52.917Z,19.46
2023-01-26T05:21:17.698Z,19.43
2023-01-26T05:26:24.831Z,19.40
2023-01-26T05:31:38.293Z,19.38
2023-01-26T05:36:43.288Z,19.36
2023-01-26T05:41:46.467Z,19.33
2023-01-26T05:47:18.689Z,19.32
2023-01-26T05:52:25.737Z,19.30
2023-01-26T05:57:28.583Z,19.29
2023-01-26T06:02:35.865Z,19.26
2023-01-26T06:07:40.270Z,19.24
2023-01-26T06:13:01.475Z,19.23
2023-01-26T06:18:28.624Z,19.21
2023-01-26T06:23:34.324Z,19.20
2023-01-26T06:28:38.989Z,19.20
2023-01-26T06:33:42.009Z,19.16
2023-01-26T06:38:49.046Z,19.15
2023-01-26T06:43:52.533Z,19.15
2023-01-26T06:48:55.348Z,19.14
2023-01-26T06:54:00.113Z,19.13
2023-01-26T06:59:10.681Z,19.12
2023-01-26T07:04:27.693Z,19.11
2023-01-26T07:09:31.953Z,19.09
2023-01-26T07:14:35.017Z,19.05
2023-01-26T07:19:37.811Z,19.00
2023-01-26T07:24:42.015Z,19.02
2023-01-26T07:29:46.415Z,19.00
2023-01-26T07:34:49.526Z,18.97
2023-01-26T07:39:53.609Z,18.95
2023-01-26T07:44:56.470Z,18.94
2023-01-26T07:49:59.243Z,18.93
2023-01-26T07:55:03.435Z,18.94
2023-01-26T08:00:07.275Z,18.92
2023-01-26T08:05:14.604Z,19.08
2023-01-26T08:10:19.102Z,19.40
2023-01-26T08:15:21.953Z,19.64
2023-01-26T08:20:24.867Z,19.77
2023-01-26T08:25:29.067Z,17.97
2023-01-26T08:30:31.856Z,15.01
2023-01-26T08:35:35.597Z,13.17
2023-01-26T08:40:39.906Z,14.91
2023-01-26T08:45:42.785Z,16.63
2023-01-26T08:50:45.745Z,17.27
2023-01-26T08:55:49.960Z,17.66
2023-01-26T09:00:52.758Z,17.97
2023-01-26T09:06:00.833Z,18.19
2023-01-26T09:11:06.868Z,18.41
2023-01-26T09:16:16.400Z,18.58
2023-01-26T09:21:19.335Z,18.72
2023-01-26T09:26:23.460Z,18.86
2023-01-26T09:31:26.395Z,18.99
2023-01-26T09:36:30.166Z,19.07
2023-01-26T09:41:52.965Z,19.16
2023-01-26T09:47:05.214Z,19.25
2023-01-26T09:52:16.280Z,19.31
2023-01-26T09:57:26.073Z,19.38
2023-01-26T10:02:46.452Z,19.47
2023-01-26T10:07:49.481Z,19.55
2023-01-26T10:12:54.874Z,19.59
2023-01-26T10:18:01.017Z,19.65
2023-01-26T10:23:08.383Z,19.74
2023-01-26T10:28:18.353Z,19.82
2023-01-26T10:33:27.455Z,19.86
2023-01-26T10:38:45.640Z,19.91
2023-01-26T10:43:54.241Z,19.98
2023-01-26T10:48:59.759Z,20.02
2023-01-26T10:54:22.899Z,20.03
2023-01-26T10:59:34.200Z,20.08
2023-01-26T11:04:37.009Z,20.12
2023-01-26T11:09:39.794Z,20.17
2023-01-26T11:15:01.341Z,20.20
2023-01-26T11:20:14.729Z,20.25
2023-01-26T11:25:26.143Z,20.29
2023-01-26T11:30:42.721Z,20.32
2023-01-26T11:35:55.181Z,20.38
2023-01-26T11:41:21.159Z,20.42
2023-01-26T11:46:39.981Z,20.44
2023-01-26T11:52:00.111Z,20.44
2023-01-26T11:57:14.700Z,20.48
2023-01-26T12:02:29.901Z,20.51
2023-01-26T12:07:54.460Z,20.56
2023-01-26T12:13:06.325Z,20.58
2023-01-26T12:18:20.350Z,20.62
2023-01-26T12:23:33.370Z,20.66
2023-01-26T12:28:43.978Z,20.67
2023-01-26T12:33:53.571Z,20.68
2023-01-26T12:39:17.934Z,20.70
2023-01-26T12:44:31.721Z,20.72
2023-01-26T12:49:43.213Z,20.75
2023-01-26T12:54:50.169Z,20.77
2023-01-26T12:59:53.282Z,20.79
2023-01-26T13:04:58.841Z,20.81
2023-01-26T13:10:27.970Z,20.82
2023-01-26T13:15:33.159Z,20.83
2023-01-26T13:20:48.342Z,20.86
2023-01-26T13:26:19.438Z,20.86
2023-01-26T13:31:35.107Z,20.89
2023-01-26T13:36:44.526Z,20.93
2023-01-26T13:41:48.759Z,20.94
2023-01-26T13:46:57.319Z,20.94
2023-01-26T13:52:01.485Z,20.97
2023-01-26T13:57:06.356Z,20.99
2023-01-26T14:02:12.662Z,21.01
2023-01-26T14:07:18.933Z,21.01
2023-01-26T14:12:25.229Z,21.03
2023-01-26T14:17:31.035Z,21.07
2023-01-26T14:22:35.304Z,21.17
2023-01-26T14:27:40.363Z,21.15
2023-01-26T14:32:43.147Z,21.15
2023-01-26T14:37:47.277Z,21.20
2023-01-26T14:42:53.469Z,21.24
2023-01-26T14:47:58.212Z,21.26
2023-01-26T14:53:04.498Z,21.30
2023-01-26T14:58:20.736Z,21.37
2023-01-26T15:03:29.762Z,21.38
2023-01-26T15:08:36.234Z,21.42
2023-01-26T15:13:42.618Z,21.55
2023-01-26T15:18:45.916Z,21.63
2023-01-26T15:23:53.267Z,21.76
2023-01-26T15:28:58.949Z,21.86
2023-01-26T15:34:02.363Z,21.95
2023-01-26T15:39:16.763Z,22.10
2023-01-26T15:44:22.331Z,22.24
2023-01-26T15:49:25.312Z,22.31
2023-01-26T15:54:29.589Z,22.38
2023-01-26T15:59:32.345Z,22.43
2023-01-26T16:04:35.071Z,22.50
2023-01-26T16:09:39.172Z,22.39
2023-01-26T16:14:42.331Z,22.57
2023-01-26T16:19:45.964Z,22.64
2023-01-26T16:24:50.085Z,22.65
2023-01-26T16:29:53.061Z,22.71
2023-01-26T16:34:55.858Z,22.69
2023-01-26T16:40:00.050Z,22.73
2023-01-26T16:45:02.916Z,22.68
2023-01-26T16:50:06.250Z,22.66
2023-01-26T16:55:14.098Z,22.69
2023-01-26T17:00:18.842Z,22.74
2023-01-26T17:05:22.971Z,22.82
2023-01-26T17:10:27.151Z,22.76
2023-01-26T17:15:30.150Z,22.54
2023-01-26T17:20:32.916Z,22.69
2023-01-26T17:25:37.051Z,22.58
2023-01-26T17:30:40.039Z,22.38
2023-01-26T17:35:42.942Z,22.39
2023-01-26T17:40:55.539Z,22.52
2023-01-26T17:46:09.494Z,22.42
2023-01-26T17:51:14.487Z,22.13
2023-01-26T17:56:21.333Z,22.32
2023-01-26T18:01:25.904Z,22.46
2023-01-26T18:06:28.711Z,22.43
2023-01-26T18:11:32.975Z,22.23
2023-01-26T18:16:35.830Z,22.28
2023-01-26T18:21:38.854Z,22.31
2023-01-26T18:26:42.965Z,22.28
2023-01-26T18:31:45.858Z,22.29
2023-01-26T18:36:48.739Z,22.26
2023-01-26T18:41:52.868Z,22.24
2023-01-26T18:46:55.721Z,22.28
2023-01-26T18:51:58.512Z,22.23
2023-01-26T18:57:02.718Z,22.20
2023-01-26T19:02:05.660Z,22.18
2023-01-26T19:07:09.621Z,22.26
2023-01-26T19:12:14.046Z,22.21
2023-01-26T19:17:18.092Z,22.22
2023-01-26T19:22:21.504Z,22.23
2023-01-26T19:27:25.678Z,22.27
2023-01-26T19:32:28.435Z,22.28
2023-01-26T19:37:31.286Z,22.29
2023-01-26T19:42:35.510Z,22.27
2023-01-26T19:47:40.949Z,22.30
2023-01-26T19:52:44.110Z,22.27
2023-01-26T19:57:48.247Z,22.30
2023-01-26T20:02:51.078Z,22.25
2023-01-26T20:07:53.882Z,22.38
2023-01-26T20:12:59.289Z,22.34
2023-01-26T20:18:03.403Z,22.16
2023-01-26T20:23:07.565Z,22.19
2023-01-26T20:28:11.836Z,22.20
2023-01-26T20:33:14.980Z,22.27
2023-01-26T20:38:18.597Z,22.17
2023-01-26T20:43:23.266Z,22.14
2023-01-26T20:48:26.451Z,22.25
2023-01-26T20:53:29.429Z,22.26
2023-01-26T20:58:33.664Z,22.24
2023-01-26T21:03:37.195Z,22.21
2023-01-26T21:08:40.727Z,22.29
2023-01-26T21:13:45.682Z,22.31
2023-01-26T21:18:49.301Z,22.38
2023-01-26T21:23:52.499Z,22.20
2023-01-26T21:28:58.268Z,22.13
2023-01-26T21:34:02.159Z,22.20
2023-01-26T21:39:07.121Z,22.22
2023-01-26T21:44:14.637Z,22.14
2023-01-26T21:49:18.036Z,22.25
2023-01-26T21:54:20.904Z,22.17
2023-01-26T21:59:25.333Z,22.16
2023-01-26T22:04:30.158Z,22.11
2023-01-26T22:09:35.957Z,22.16
2023-01-26T22:14:40.503Z,22.21
2023-01-26T22:19:43.671Z,22.31
2023-01-26T22:24:46.503Z,22.12
2023-01-26T22:29:50.761Z,22.20
2023-01-26T22:34:53.598Z,22.17
2023-01-26T22:39:56.426Z,22.14
2023-01-26T22:45:00.584Z,22.03
2023-01-26T22:50:03.321Z,22.11
2023-01-26T22:55:06.725Z,22.02
2023-01-26T23:00:12.667Z,21.92
2023-01-26T23:05:15.795Z,21.95
2023-01-26T23:10:18.718Z,21.95
2023-01-26T23:15:22.872Z,21.96
2023-01-26T23:20:25.715Z,21.88
2023-01-26T23:25:45.792Z,22.00
2023-01-26T23:30:51.601Z,21.99
2023-01-26T23:35:54.848Z,21.94
2023-01-26T23:40:58.856Z,21.99
2023-01-26T23:46:03.347Z,21.90
2023-01-26T23:51:08.396Z,21.90
2023-01-26T23:56:14.664Z,21.84
